Time;durP1;ratioP1;P1;durP2;ratioP2;P2;SDS_P1;SDS_P2;PMS_P1;PMS_P2;Temp;Humidity;BMP_temperature;BMP_pressure;BME280_temperature;BME280_humidity;BME280_pressure;Samples;Min_cycle;Max_cycle;Signal;HPM_P1;HPM_P2
2022/07/25 00:00:08;;;;;;;6.80;6.20;;;21.50;99.90;;;;;;6153900;23;20141;-72
2022/07/25 00:02:34;;;;;;;6.63;6.13;;;21.50;99.90;;;;;;6154177;23;20165;-72
2022/07/25 00:05:00;;;;;;;7.15;6.55;;;21.50;99.90;;;;;;6154430;23;20248;-73
2022/07/25 00:07:26;;;;;;;6.68;6.07;;;21.50;99.90;;;;;;6154840;23;20610;-73
2022/07/25 00:09:52;;;;;;;6.53;6.03;;;21.40;99.90;;;;;;6154933;23;20438;-73
2022/07/25 00:12:18;;;;;;;7.22;6.65;;;21.40;99.90;;;;;;6154798;23;20176;-73
2022/07/25 00:14:44;;;;;;;7.35;6.75;;;21.30;99.90;;;;;;6155163;23;20223;-73
2022/07/25 00:17:10;;;;;;;7.22;6.63;;;21.30;99.90;;;;;;6154684;23;20235;-73
2022/07/25 00:19:36;;;;;;;7.47;6.78;;;21.20;99.90;;;;;;6153969;23;20153;-71
2022/07/25 00:22:01;;;;;;;7.00;6.50;;;21.20;99.90;;;;;;6154030;23;20173;-72
2022/07/25 00:24:27;;;;;;;7.25;6.60;;;21.10;99.90;;;;;;6153781;23;20185;-73
2022/07/25 00:26:52;;;;;;;7.35;6.30;;;21.10;99.90;;;;;;6154069;23;20146;-73
2022/07/25 00:29:18;;;;;;;6.93;6.40;;;21.10;99.90;;;;;;6153190;23;20788;-73
2022/07/25 00:31:44;;;;;;;6.80;6.30;;;21.10;99.90;;;;;;6154038;23;20552;-73
2022/07/25 00:34:09;;;;;;;7.38;6.78;;;21.10;99.90;;;;;;6153711;23;20204;-73
2022/07/25 00:36:35;;;;;;;7.65;7.05;;;21.10;99.90;;;;;;6153399;23;20142;-73
2022/07/25 00:39:01;;;;;;;6.75;6.15;;;21.10;99.90;;;;;;6153621;23;20177;-73
2022/07/25 00:41:27;;;;;;;7.30;6.70;;;21.10;99.90;;;;;;6153701;23;20240;-73
2022/07/25 00:43:52;;;;;;;8.02;7.22;;;21.00;99.90;;;;;;6153640;23;20152;-74
2022/07/25 00:46:18;;;;;;;7.88;7.18;;;21.00;99.90;;;;;;6159929;23;20145;-75
2022/07/25 00:48:43;;;;;;;7.82;7.03;;;21.00;99.90;;;;;;6134906;23;20164;-74
2022/07/25 00:51:10;;;;;;;7.38;6.85;;;20.90;99.90;;;;;;6137295;23;20237;-74
2022/07/25 00:53:37;;;;;;;8.18;7.57;;;20.80;99.90;;;;;;6155962;23;20176;-75
2022/07/25 00:56:04;;;;;;;11.27;6.93;;;20.70;99.90;;;;;;6154134;23;20177;-74
2022/07/25 00:58:30;;;;;;;7.57;6.97;;;20.70;99.90;;;;;;6153352;23;20224;-75
2022/07/25 01:00:56;;;;;;;7.90;7.20;;;20.60;99.90;;;;;;6153723;23;20177;-74
2022/07/25 01:03:22;;;;;;;7.25;6.75;;;20.60;99.90;;;;;;6152985;23;20549;-74
2022/07/25 01:05:49;;;;;;;7.60;6.97;;;20.60;99.90;;;;;;6154026;23;20149;-75
2022/07/25 01:08:17;;;;;;;8.68;7.90;;;20.50;99.90;;;;;;6153899;23;20240;-75
2022/07/25 01:10:44;;;;;;;8.10;7.47;;;20.50;99.90;;;;;;6153406;23;20149;-74
2022/07/25 01:13:10;;;;;;;7.60;6.95;;;20.50;99.90;;;;;;6153772;23;20169;-75
2022/07/25 01:15:35;;;;;;;7.97;7.32;;;20.50;99.90;;;;;;6153795;23;20207;-75
2022/07/25 01:18:01;;;;;;;8.15;7.55;;;20.60;99.90;;;;;;6153962;23;20180;-74
2022/07/25 01:20:28;;;;;;;8.15;7.55;;;20.50;99.90;;;;;;6152533;23;20606;-74
2022/07/25 01:22:55;;;;;;;7.80;7.05;;;20.50;99.90;;;;;;6153854;23;20173;-74
2022/07/25 01:25:21;;;;;;;7.43;6.93;;;20.50;99.90;;;;;;6127656;23;20153;-74
2022/07/25 01:27:48;;;;;;;7.50;7.00;;;20.40;99.90;;;;;;6153941;23;20167;-73
2022/07/25 01:30:15;;;;;;;7.88;7.28;;;20.40;99.90;;;;;;6155275;23;20161;-73
2022/07/25 01:32:42;;;;;;;7.13;6.60;;;20.40;99.90;;;;;;6155378;23;20197;-73
2022/07/25 01:35:09;;;;;;;7.65;6.95;;;20.40;99.90;;;;;;6155415;23;20261;-73
2022/07/25 01:37:35;;;;;;;8.00;7.30;;;20.40;99.90;;;;;;6155003;23;20173;-73
2022/07/25 01:40:01;;;;;;;8.45;7.78;;;20.30;99.90;;;;;;6157265;23;20153;-74
2022/07/25 01:42:27;;;;;;;8.50;7.70;;;20.30;99.90;;;;;;6131223;23;20235;-74
2022/07/25 01:44:53;;;;;;;8.80;7.85;;;20.30;99.90;;;;;;6132514;23;20180;-74
2022/07/25 01:47:19;;;;;;;7.75;7.25;;;20.30;99.90;;;;;;6157645;23;20164;-74
2022/07/25 01:49:45;;;;;;;8.18;7.47;;;20.30;99.90;;;;;;6131405;23;20168;-74
2022/07/25 01:52:12;;;;;;;9.00;8.20;;;20.20;99.90;;;;;;6158223;23;20173;-74
2022/07/25 01:54:38;;;;;;;7.60;6.75;;;20.20;99.90;;;;;;6132342;23;20162;-74
2022/07/25 01:57:04;;;;;;;7.85;7.15;;;20.20;99.90;;;;;;6157977;23;20168;-74
2022/07/25 01:59:30;;;;;;;8.63;7.90;;;20.20;99.90;;;;;;6131897;23;20542;-74
2022/07/25 02:01:56;;;;;;;8.30;7.60;;;20.20;99.90;;;;;;6158636;23;20165;-74
2022/07/25 02:04:21;;;;;;;8.07;7.47;;;20.20;99.90;;;;;;6132899;23;20232;-74
2022/07/25 02:06:47;;;;;;;8.02;7.35;;;20.20;99.90;;;;;;6129391;23;20157;-74
2022/07/25 02:09:13;;;;;;;8.73;7.80;;;20.10;99.90;;;;;;6154453;23;20535;-74
2022/07/25 02:11:38;;;;;;;8.80;8.07;;;20.00;99.90;;;;;;6155069;23;20177;-74
2022/07/25 02:14:04;;;;;;;8.32;7.63;;;20.00;99.90;;;;;;6154528;23;20212;-74
2022/07/25 02:16:30;;;;;;;9.00;8.30;;;20.00;99.90;;;;;;6155009;23;20154;-74
2022/07/25 02:18:55;;;;;;;7.75;7.10;;;19.90;99.90;;;;;;6154423;23;20629;-74
2022/07/25 02:21:21;;;;;;;8.35;7.65;;;19.90;99.90;;;;;;6128670;23;20184;-73
2022/07/25 02:23:47;;;;;;;9.38;8.57;;;19.80;99.90;;;;;;6155184;23;20149;-73
2022/07/25 02:26:13;;;;;;;8.57;7.88;;;19.80;99.90;;;;;;6155930;23;20146;-74
2022/07/25 02:28:39;;;;;;;8.65;7.95;;;19.70;99.90;;;;;;6128846;23;20505;-73
2022/07/25 02:31:05;;;;;;;8.30;7.70;;;19.70;99.90;;;;;;6154867;23;20207;-73
2022/07/25 02:33:31;;;;;;;9.27;8.57;;;19.70;99.90;;;;;;6154319;23;20177;-73
2022/07/25 02:35:57;;;;;;;8.65;7.95;;;19.60;99.90;;;;;;6154570;23;20157;-73
2022/07/25 02:38:22;;;;;;;8.75;8.00;;;19.60;99.90;;;;;;6154649;23;20169;-73
2022/07/25 02:40:49;;;;;;;7.78;7.18;;;19.60;99.90;;;;;;6154361;23;20145;-73
2022/07/25 02:43:15;;;;;;;8.30;7.50;;;19.50;99.90;;;;;;6154834;23;20172;-73
2022/07/25 02:45:41;;;;;;;8.80;8.10;;;19.50;99.90;;;;;;6154793;23;20150;-73
2022/07/25 02:48:07;;;;;;;8.38;7.68;;;19.40;99.90;;;;;;6155003;23;20240;-74
2022/07/25 02:50:34;;;;;;;9.45;8.65;;;19.40;99.90;;;;;;6155030;23;20237;-74
2022/07/25 02:52:59;;;;;;;9.25;8.52;;;19.30;99.90;;;;;;6156853;23;20170;-74
2022/07/25 02:55:25;;;;;;;8.50;7.82;;;19.20;99.90;;;;;;6154576;23;20149;-74
2022/07/25 02:57:51;;;;;;;8.60;7.90;;;19.20;99.90;;;;;;6154638;23;20208;-74
2022/07/25 03:00:17;;;;;;;8.43;7.82;;;19.30;99.90;;;;;;6154910;23;20181;-72
2022/07/25 03:02:43;;;;;;;8.85;8.15;;;19.30;99.90;;;;;;6154572;23;20268;-73
2022/07/25 03:05:11;;;;;;;9.15;8.32;;;19.20;99.90;;;;;;6154353;23;20592;-73
2022/07/25 03:07:37;;;;;;;9.68;8.88;;;19.30;99.90;;;;;;6154320;23;20232;-74
2022/07/25 03:10:05;;;;;;;8.27;7.57;;;19.30;99.90;;;;;;6154308;23;20154;-74
2022/07/25 03:12:33;;;;;;;9.05;8.35;;;19.20;99.90;;;;;;6154153;23;20173;-74
2022/07/25 03:15:00;;;;;;;8.90;8.07;;;19.20;99.90;;;;;;6154580;23;20153;-74
2022/07/25 03:17:27;;;;;;;8.70;8.00;;;19.20;99.90;;;;;;6154589;23;20224;-74
2022/07/25 03:19:54;;;;;;;8.50;7.72;;;19.10;99.90;;;;;;6154452;23;20228;-74
2022/07/25 03:22:20;;;;;;;9.23;8.43;;;19.00;99.90;;;;;;6153949;23;20173;-73
2022/07/25 03:24:45;;;;;;;9.05;8.32;;;19.00;99.90;;;;;;6154309;23;20627;-74
2022/07/25 03:27:11;;;;;;;9.25;8.45;;;18.90;99.90;;;;;;6154971;23;20214;-74
2022/07/25 03:29:37;;;;;;;8.57;7.93;;;18.90;99.90;;;;;;6154213;23;20157;-73
2022/07/25 03:32:03;;;;;;;9.43;8.63;;;18.80;99.90;;;;;;6153947;23;20670;-72
2022/07/25 03:34:28;;;;;;;9.18;8.38;;;18.90;99.90;;;;;;6154686;23;20484;-71
2022/07/25 03:36:54;;;;;;;9.45;8.65;;;18.90;99.90;;;;;;6154566;23;20145;-71
2022/07/25 03:39:20;;;;;;;9.25;8.52;;;18.90;99.90;;;;;;6130058;23;20185;-74
2022/07/25 03:41:46;;;;;;;9.60;8.68;;;19.00;99.90;;;;;;6154650;23;20227;-73
2022/07/25 03:44:12;;;;;;;8.95;8.15;;;19.10;99.90;;;;;;6154080;23;20149;-73
2022/07/25 03:46:38;;;;;;;10.07;9.13;;;19.10;99.90;;;;;;6155226;23;20149;-73
2022/07/25 03:49:03;;;;;;;9.40;8.60;;;19.10;99.90;;;;;;6154682;23;20153;-74
2022/07/25 03:51:29;;;;;;;10.18;8.35;;;19.10;99.90;;;;;;6153605;23;20224;-73
2022/07/25 03:54:01;;;;;;;9.18;8.48;;;19.10;99.90;;;;;;6155252;23;20157;-74
2022/07/25 03:56:32;;;;;;;8.68;7.97;;;19.10;99.90;;;;;;6155015;23;20141;-73
2022/07/25 03:58:58;;;;;;;10.20;9.40;;;19.10;99.90;;;;;;6153830;23;20608;-74
2022/07/25 04:01:23;;;;;;;8.35;7.65;;;19.00;99.90;;;;;;6153605;23;20626;-73
2022/07/25 04:03:49;;;;;;;8.77;8.00;;;19.00;99.90;;;;;;6154069;23;20145;-74
2022/07/25 04:06:15;;;;;;;10.48;8.48;;;18.90;99.90;;;;;;6154241;23;20276;-74
2022/07/25 04:08:41;;;;;;;9.20;8.43;;;18.90;99.90;;;;;;6155392;23;20153;-75
2022/07/25 04:11:06;;;;;;;8.88;8.25;;;18.90;99.90;;;;;;6156237;23;20145;-74
2022/07/25 04:13:32;;;;;;;8.65;8.00;;;19.00;99.90;;;;;;6155072;23;20528;-74
2022/07/25 04:15:57;;;;;;;9.23;8.48;;;19.00;99.90;;;;;;6154287;23;20156;-73
2022/07/25 04:18:23;;;;;;;9.25;8.45;;;19.00;99.90;;;;;;6153751;23;20495;-73
2022/07/25 04:20:49;;;;;;;9.93;9.02;;;19.00;99.90;;;;;;6153530;23;20149;-74
2022/07/25 04:23:15;;;;;;;10.35;8.50;;;19.00;99.90;;;;;;6128335;23;20173;-73
2022/07/25 04:25:40;;;;;;;9.50;8.60;;;19.10;99.90;;;;;;6154319;23;20145;-74
2022/07/25 04:28:06;;;;;;;9.52;8.73;;;19.10;99.90;;;;;;6154248;23;20594;-74
2022/07/25 04:30:31;;;;;;;9.18;8.48;;;19.20;99.90;;;;;;6152862;23;20236;-74
2022/07/25 04:32:57;;;;;;;9.40;8.50;;;19.30;99.90;;;;;;6154316;23;20183;-73
2022/07/25 04:35:23;;;;;;;8.82;8.13;;;19.30;99.90;;;;;;6153376;23;20530;-73
2022/07/25 04:37:49;;;;;;;9.57;8.63;;;19.40;99.90;;;;;;6153568;23;20169;-73
2022/07/25 04:40:15;;;;;;;9.63;8.82;;;19.40;99.90;;;;;;6153852;23;20172;-73
2022/07/25 04:42:41;;;;;;;9.32;8.50;;;19.50;99.90;;;;;;6154035;23;20481;-73
2022/07/25 04:45:07;;;;;;;10.05;9.15;;;19.50;99.90;;;;;;6154070;23;20147;-73
2022/07/25 04:47:33;;;;;;;9.85;8.95;;;19.50;99.90;;;;;;6153169;23;20607;-74
2022/07/25 04:50:00;;;;;;;10.05;9.05;;;19.60;99.90;;;;;;6153478;23;20168;-73
2022/07/25 04:52:25;;;;;;;10.23;9.43;;;19.70;99.90;;;;;;6153957;23;20173;-73
2022/07/25 04:54:51;;;;;;;10.40;9.60;;;19.80;99.90;;;;;;6152263;23;20162;-76
2022/07/25 04:57:17;;;;;;;11.05;10.00;;;19.80;99.90;;;;;;6152954;23;20154;-75
2022/07/25 04:59:43;;;;;;;11.07;9.93;;;19.80;99.90;;;;;;6153337;23;20476;-76
2022/07/25 05:02:09;;;;;;;11.20;10.30;;;19.90;99.90;;;;;;6153787;23;20581;-76
2022/07/25 05:04:34;;;;;;;10.70;9.60;;;20.00;99.90;;;;;;6154680;23;20145;-76
2022/07/25 05:07:00;;;;;;;11.10;10.13;;;20.10;99.90;;;;;;6152789;23;20145;-75
2022/07/25 05:09:26;;;;;;;10.45;9.35;;;20.10;99.90;;;;;;6155299;23;20645;-76
2022/07/25 05:11:52;;;;;;;10.63;9.65;;;20.20;99.90;;;;;;6154421;23;20188;-76
2022/07/25 05:14:18;;;;;;;10.68;9.77;;;20.30;99.90;;;;;;6154782;23;20595;-74
2022/07/25 05:16:43;;;;;;;9.52;8.68;;;20.40;99.90;;;;;;6155551;23;20165;-71
2022/07/25 05:19:09;;;;;;;10.10;9.20;;;20.50;99.90;;;;;;6154033;23;20173;-73
2022/07/25 05:21:34;;;;;;;10.60;9.70;;;20.60;99.90;;;;;;6153576;23;20181;-73
2022/07/25 05:24:00;;;;;;;10.20;9.30;;;20.70;99.90;;;;;;6153689;23;20220;-72
2022/07/25 05:26:26;;;;;;;12.93;10.25;;;20.80;99.90;;;;;;6154394;23;20649;-71
2022/07/25 05:28:51;;;;;;;14.88;10.10;;;20.90;99.90;;;;;;6153589;23;20153;-71
2022/07/25 05:31:17;;;;;;;10.30;9.35;;;20.90;99.90;;;;;;6153734;23;20163;-72
2022/07/25 05:33:42;;;;;;;11.02;9.13;;;21.00;99.90;;;;;;6128983;23;20188;-74
2022/07/25 05:36:08;;;;;;;9.50;8.68;;;21.10;99.90;;;;;;6156363;23;20181;-74
2022/07/25 05:38:34;;;;;;;9.52;8.73;;;21.20;99.90;;;;;;6157029;23;20173;-74
2022/07/25 05:40:59;;;;;;;9.73;8.77;;;21.30;99.90;;;;;;6129538;23;20181;-73
2022/07/25 05:43:25;;;;;;;10.82;8.82;;;21.40;99.90;;;;;;6154826;23;20166;-73
2022/07/25 05:45:52;;;;;;;7.88;7.25;;;21.40;99.90;;;;;;6155413;23;20555;-73
2022/07/25 05:48:17;;;;;;;9.43;8.40;;;21.50;99.90;;;;;;6129010;23;20165;-73
2022/07/25 05:50:44;;;;;;;9.32;8.43;;;21.60;99.90;;;;;;6154529;23;20258;-73
2022/07/25 05:53:11;;;;;;;7.60;6.88;;;21.70;99.90;;;;;;6154619;23;20196;-73
2022/07/25 05:55:36;;;;;;;10.18;8.02;;;21.80;99.90;;;;;;6155542;23;20494;-71
2022/07/25 05:58:02;;;;;;;8.20;7.53;;;21.90;99.90;;;;;;6155115;23;20185;-71
2022/07/25 06:00:28;;;;;;;8.60;7.82;;;22.00;99.90;;;;;;6154537;23;20180;-71
2022/07/25 06:02:58;;;;;;;8.70;7.93;;;22.20;99.90;;;;;;6155005;23;20513;-72
2022/07/25 06:05:23;;;;;;;8.45;7.70;;;22.20;99.90;;;;;;6155437;23;20209;-72
2022/07/25 06:07:49;;;;;;;8.40;7.60;;;22.30;99.90;;;;;;6155191;23;20622;-75
2022/07/25 06:10:15;;;;;;;8.27;7.47;;;22.40;99.90;;;;;;6154567;23;20158;-71
2022/07/25 06:12:40;;;;;;;8.40;7.60;;;22.50;99.90;;;;;;6154581;23;20657;-72
2022/07/25 06:15:07;;;;;;;8.30;7.60;;;22.70;99.90;;;;;;6154488;23;20149;-72
2022/07/25 06:17:32;;;;;;;8.95;7.95;;;22.70;99.90;;;;;;6155185;23;20506;-72
2022/07/25 06:19:58;;;;;;;7.93;7.22;;;22.80;99.90;;;;;;6154257;23;20173;-71
2022/07/25 06:22:23;;;;;;;8.10;7.40;;;23.00;99.90;;;;;;6155070;23;20204;-72
2022/07/25 06:24:49;;;;;;;7.93;7.18;;;23.00;99.90;;;;;;6154969;23;20217;-72
2022/07/25 06:27:15;;;;;;;7.00;6.32;;;23.10;99.90;;;;;;6154983;23;20156;-73
2022/07/25 06:29:40;;;;;;;7.97;7.18;;;23.20;99.90;;;;;;6154200;23;20245;-71
2022/07/25 06:32:06;;;;;;;7.47;6.88;;;23.30;99.90;;;;;;6154718;23;20173;-71
2022/07/25 06:34:32;;;;;;;7.43;6.78;;;23.40;99.90;;;;;;6155071;23;20156;-71
2022/07/25 06:36:57;;;;;;;6.07;5.65;;;23.50;99.90;;;;;;6154364;23;20149;-71
2022/07/25 06:39:24;;;;;;;10.40;7.03;;;23.60;99.90;;;;;;6158235;23;20170;-72
2022/07/25 06:41:50;;;;;;;6.75;6.13;;;23.80;99.90;;;;;;6138100;23;20256;-71
2022/07/25 06:44:16;;;;;;;6.40;5.82;;;23.90;99.90;;;;;;6154488;23;20168;-70
2022/07/25 06:46:41;;;;;;;6.57;6.15;;;23.90;99.90;;;;;;6154227;23;20153;-70
2022/07/25 06:49:07;;;;;;;6.25;5.75;;;24.10;99.90;;;;;;6154339;23;20157;-70
2022/07/25 06:51:33;;;;;;;5.72;5.28;;;24.20;99.90;;;;;;6154570;23;20200;-71
2022/07/25 06:53:59;;;;;;;6.03;5.63;;;24.20;99.90;;;;;;6154853;23;20236;-69
2022/07/25 06:56:25;;;;;;;7.07;6.45;;;24.30;99.90;;;;;;6154420;23;20203;-69
2022/07/25 06:58:52;;;;;;;5.55;5.15;;;24.40;99.90;;;;;;6154203;23;20276;-69
2022/07/25 07:01:17;;;;;;;6.35;5.90;;;24.50;99.90;;;;;;6154530;23;20153;-69
2022/07/25 07:03:43;;;;;;;6.68;6.15;;;24.70;99.90;;;;;;6153784;23;20169;-72
2022/07/25 07:06:09;;;;;;;6.90;5.75;;;24.70;99.90;;;;;;6154703;23;20156;-69
2022/07/25 07:08:35;;;;;;;7.22;5.45;;;24.70;99.90;;;;;;6154395;23;20204;-69
2022/07/25 07:11:01;;;;;;;6.07;5.68;;;24.90;99.90;;;;;;6154690;23;20487;-69
2022/07/25 07:13:26;;;;;;;5.72;5.30;;;25.00;99.90;;;;;;6153906;23;20251;-69
2022/07/25 07:15:52;;;;;;;6.22;5.72;;;25.00;99.90;;;;;;6154880;23;20154;-69
2022/07/25 07:18:21;;;;;;;10.15;6.20;;;25.10;99.90;;;;;;6154385;23;20173;-69
2022/07/25 07:20:47;;;;;;;5.82;5.32;;;25.20;99.90;;;;;;6153481;23;20240;-69
2022/07/25 07:23:13;;;;;;;6.43;5.88;;;25.30;99.90;;;;;;6154461;23;20254;-69
2022/07/25 07:25:39;;;;;;;7.55;6.03;;;25.40;99.90;;;;;;6154249;23;20150;-69
2022/07/25 07:28:05;;;;;;;6.63;6.03;;;25.40;99.90;;;;;;6153937;23;20153;-69
2022/07/25 07:30:32;;;;;;;5.97;5.57;;;25.50;99.90;;;;;;6154030;23;20546;-69
2022/07/25 07:32:57;;;;;;;7.30;6.80;;;25.60;99.70;;;;;;6154303;23;20180;-69
2022/07/25 07:35:24;;;;;;;6.38;5.88;;;25.60;99.30;;;;;;6154786;23;20150;-69
2022/07/25 07:37:51;;;;;;;6.85;6.30;;;25.70;98.60;;;;;;6153481;23;20183;-69
2022/07/25 07:40:17;;;;;;;6.20;5.70;;;25.70;99.00;;;;;;6154113;23;20625;-70
2022/07/25 07:42:48;;;;;;;6.65;6.05;;;25.80;98.90;;;;;;6154152;23;20180;-71
2022/07/25 07:45:19;;;;;;;6.43;5.80;;;25.90;98.60;;;;;;6154375;23;20189;-70
2022/07/25 07:47:47;;;;;;;5.97;5.57;;;26.00;99.10;;;;;;6153827;23;20197;-70
2022/07/25 07:50:15;;;;;;;6.20;5.70;;;26.00;99.10;;;;;;6153962;23;20229;-70
2022/07/25 07:52:41;;;;;;;5.90;5.32;;;26.10;98.40;;;;;;6156505;23;20184;-72
2022/07/25 07:57:51;;;;;;;7.22;6.60;;;26.30;97.00;;;;;;6156053;23;20199;-72
2022/07/25 08:00:17;;;;;;;6.35;5.82;;;26.30;97.70;;;;;;6156242;23;20173;-70
2022/07/25 08:02:49;;;;;;;6.72;6.28;;;26.30;97.00;;;;;;6156085;23;20172;-71
2022/07/25 08:05:21;;;;;;;6.72;6.22;;;26.50;97.20;;;;;;6154531;23;20227;-72
2022/07/25 08:07:50;;;;;;;7.18;5.57;;;26.50;96.90;;;;;;6131283;23;20196;-72
2022/07/25 08:10:26;;;;;;;6.60;6.10;;;26.70;96.80;;;;;;6130682;23;20172;-71
2022/07/25 08:12:52;;;;;;;6.53;6.05;;;26.80;96.40;;;;;;6156161;23;20234;-70
2022/07/25 08:15:19;;;;;;;6.38;5.82;;;27.00;96.30;;;;;;6156279;23;20591;-71
2022/07/25 08:17:46;;;;;;;6.20;5.80;;;27.10;95.10;;;;;;6156180;23;20177;-69
2022/07/25 08:20:12;;;;;;;6.70;6.10;;;27.20;94.50;;;;;;6127459;23;20160;-72
2022/07/25 08:22:40;;;;;;;5.93;5.55;;;27.30;94.20;;;;;;6153387;23;20645;-70
2022/07/25 08:25:08;;;;;;;6.63;5.90;;;27.40;94.10;;;;;;6155853;23;20518;-71
2022/07/25 08:27:34;;;;;;;9.23;5.82;;;27.50;93.10;;;;;;6156616;23;20547;-73
2022/07/25 08:30:00;;;;;;;6.18;5.68;;;27.60;93.10;;;;;;6158661;23;20192;-70
2022/07/25 08:32:28;;;;;;;6.10;5.60;;;27.70;92.30;;;;;;6154853;23;20169;-73
2022/07/25 08:34:55;;;;;;;6.85;6.15;;;27.80;92.20;;;;;;6156145;23;20672;-72
2022/07/25 08:37:20;;;;;;;5.85;5.25;;;27.90;91.40;;;;;;6155670;23;20169;-72
2022/07/25 08:39:47;;;;;;;6.32;5.72;;;28.00;93.00;;;;;;6155320;23;20145;-71
2022/07/25 08:42:12;;;;;;;6.15;5.75;;;28.10;91.00;;;;;;6129292;23;20173;-71
2022/07/25 08:44:42;;;;;;;5.95;5.55;;;28.20;91.40;;;;;;6156396;23;20149;-71
2022/07/25 08:47:09;;;;;;;7.00;6.35;;;28.30;90.70;;;;;;6153626;23;20693;-72
2022/07/25 08:49:34;;;;;;;5.97;5.35;;;28.40;90.80;;;;;;6155383;23;20145;-71
2022/07/25 08:52:01;;;;;;;5.95;5.50;;;28.40;88.60;;;;;;6156694;23;20510;-73
2022/07/25 08:54:27;;;;;;;6.75;6.03;;;28.50;90.00;;;;;;6154200;23;20614;-71
2022/07/25 08:56:53;;;;;;;6.50;5.57;;;28.60;88.10;;;;;;6153418;23;20173;-71
2022/07/25 08:59:19;;;;;;;6.25;5.63;;;28.70;88.30;;;;;;6153156;23;20520;-71
2022/07/25 09:01:44;;;;;;;5.75;5.18;;;28.80;89.30;;;;;;6153836;23;20264;-71
2022/07/25 09:04:10;;;;;;;6.30;5.90;;;28.90;86.10;;;;;;6153051;23;20603;-71
2022/07/25 09:06:36;;;;;;;5.45;5.00;;;29.00;85.50;;;;;;6153800;23;20233;-70
2022/07/25 09:09:07;;;;;;;5.85;5.45;;;29.20;83.30;;;;;;6153871;23;20177;-70
2022/07/25 09:11:36;;;;;;;6.05;5.65;;;29.20;83.80;;;;;;6153262;23;20138;-69
2022/07/25 09:14:11;;;;;;;6.20;5.70;;;29.30;83.60;;;;;;6153801;23;20157;-71
2022/07/25 09:16:42;;;;;;;5.65;5.25;;;29.50;84.90;;;;;;6155652;23;20228;-70
2022/07/25 09:19:30;;;;;;;6.43;5.82;;;29.70;83.60;;;;;;6154261;23;20502;-71
2022/07/25 09:22:05;;;;;;;7.07;5.65;;;29.80;82.50;;;;;;6153189;23;20622;-71
2022/07/25 09:24:31;;;;;;;7.78;6.30;;;30.00;83.90;;;;;;6153498;23;20140;-70
2022/07/25 09:26:59;;;;;;;6.18;5.75;;;30.20;81.30;;;;;;6153720;23;20176;-70
2022/07/25 09:29:27;;;;;;;6.63;5.93;;;30.40;81.80;;;;;;6152977;23;20161;-69
2022/07/25 09:31:55;;;;;;;6.13;5.72;;;30.60;80.00;;;;;;6153697;23;20180;-69
2022/07/25 09:34:34;;;;;;;6.10;5.60;;;30.80;78.80;;;;;;6127500;23;20157;-69
2022/07/25 09:37:02;;;;;;;6.05;5.65;;;31.60;75.60;;;;;;6153608;23;20179;-71
2022/07/25 09:39:43;;;;;;;5.68;5.18;;;33.50;73.20;;;;;;6152394;23;20181;-68
2022/07/25 09:42:19;;;;;;;5.68;5.22;;;36.10;65.00;;;;;;6153632;23;20171;-68
2022/07/25 09:44:56;;;;;;;5.80;5.40;;;38.40;57.50;;;;;;6153682;23;20168;-68
2022/07/25 09:47:22;;;;;;;6.10;5.63;;;40.20;52.20;;;;;;6153047;23;20136;-68
2022/07/25 09:49:48;;;;;;;5.07;4.78;;;41.10;50.60;;;;;;6154439;23;20156;-68
2022/07/25 09:52:16;;;;;;;5.55;5.13;;;42.00;47.70;;;;;;6155362;23;20389;-68
2022/07/25 09:54:42;;;;;;;5.05;4.65;;;43.20;44.40;;;;;;6154803;23;20193;-68
2022/07/25 09:57:07;;;;;;;4.63;4.25;;;43.90;42.80;;;;;;6154859;23;20153;-68
2022/07/25 09:59:34;;;;;;;5.30;4.90;;;44.60;43.20;;;;;;6154880;23;20175;-69
2022/07/25 10:02:04;;;;;;;5.20;4.85;;;45.30;43.00;;;;;;6155042;23;20247;-69
2022/07/25 10:04:50;;;;;;;5.28;4.88;;;45.60;40.40;;;;;;6155243;23;20499;-71
2022/07/25 10:07:19;;;;;;;4.50;4.28;;;45.80;41.30;;;;;;6111620;23;20156;-71
2022/07/25 10:09:47;;;;;;;4.88;4.40;;;46.10;40.30;;;;;;6155302;23;20599;-68
2022/07/25 10:12:18;;;;;;;5.03;4.63;;;46.40;39.40;;;;;;6154591;23;20169;-71
2022/07/25 10:15:07;;;;;;;4.80;4.50;;;46.70;39.10;;;;;;6155573;23;20196;-67
2022/07/25 10:17:33;;;;;;;4.30;4.10;;;46.80;38.90;;;;;;6155191;23;20601;-69
2022/07/25 10:20:02;;;;;;;4.50;4.20;;;47.50;37.50;;;;;;6154880;23;20211;-70
2022/07/25 10:22:39;;;;;;;4.72;4.47;;;47.50;37.50;;;;;;6152668;23;20171;-69
2022/07/25 10:25:13;;;;;;;4.50;4.20;;;47.40;38.30;;;;;;6154486;23;20220;-69
2022/07/25 10:27:47;;;;;;;4.50;4.20;;;47.50;37.80;;;;;;6154291;23;20152;-69
2022/07/25 10:30:27;;;;;;;4.93;4.53;;;47.70;37.40;;;;;;6154185;23;20140;-69
2022/07/25 10:32:58;;;;;;;5.00;4.70;;;48.10;37.10;;;;;;6154969;23;20178;-69
2022/07/25 10:35:24;;;;;;;4.97;4.57;;;48.00;36.90;;;;;;6153991;23;20502;-70
2022/07/25 10:37:52;;;;;;;4.88;4.50;;;48.00;36.60;;;;;;6153486;23;20202;-70
2022/07/25 10:40:31;;;;;;;4.55;4.25;;;47.20;37.00;;;;;;6153637;23;20232;-70
2022/07/25 10:43:02;;;;;;;5.07;4.70;;;47.10;37.50;;;;;;6155422;23;20192;-69
2022/07/25 10:45:37;;;;;;;4.72;4.45;;;47.60;37.30;;;;;;6153914;23;20863;-70
2022/07/25 10:48:08;;;;;;;5.03;4.70;;;48.10;35.90;;;;;;6154625;23;20168;-70
2022/07/25 10:50:34;;;;;;;4.47;4.20;;;47.50;36.80;;;;;;6154377;23;20148;-70
2022/07/25 10:53:00;;;;;;;4.70;4.50;;;47.80;36.50;;;;;;6153997;23;20506;-70
2022/07/25 10:55:27;;;;;;;4.70;4.40;;;47.90;36.80;;;;;;6154701;23;20571;-70
2022/07/25 10:58:02;;;;;;;4.95;4.55;;;48.10;36.90;;;;;;6154184;23;20231;-70
2022/07/25 11:00:28;;;;;;;4.38;4.07;;;48.50;35.90;;;;;;6153783;23;20247;-70
2022/07/25 11:02:56;;;;;;;4.75;4.45;;;48.50;36.10;;;;;;6153492;23;20227;-70
2022/07/25 11:05:22;;;;;;;5.20;4.90;;;48.10;36.60;;;;;;6154489;23;20152;-70
2022/07/25 11:07:52;;;;;;;5.00;4.68;;;48.70;35.80;;;;;;6154508;23;20498;-70
2022/07/25 11:10:25;;;;;;;4.32;4.13;;;48.90;36.30;;;;;;6153818;23;20153;-70
2022/07/25 11:12:51;;;;;;;4.82;4.45;;;49.60;35.40;;;;;;6153935;23;20248;-70
2022/07/25 11:15:22;;;;;;;7.78;4.90;;;49.80;35.10;;;;;;6155006;23;20253;-71
2022/07/25 11:17:52;;;;;;;4.80;4.50;;;49.50;35.40;;;;;;6161164;23;20263;-73
2022/07/25 11:20:18;;;;;;;4.50;4.20;;;49.30;35.50;;;;;;6157097;23;20149;-73
2022/07/25 11:22:51;;;;;;;4.80;4.40;;;48.70;36.00;;;;;;6154424;23;20175;-74
2022/07/25 11:25:21;;;;;;;5.30;4.90;;;48.50;36.10;;;;;;6154562;23;20187;-70
2022/07/25 11:27:55;;;;;;;4.20;3.90;;;48.40;36.00;;;;;;6153892;23;20160;-70
2022/07/25 11:30:20;;;;;;;4.50;4.30;;;48.90;36.80;;;;;;6154271;23;20137;-70
2022/07/25 11:32:53;;;;;;;4.88;4.57;;;48.90;35.70;;;;;;6154287;23;20183;-74
2022/07/25 11:35:25;;;;;;;4.75;4.45;;;49.50;35.40;;;;;;6154262;23;20155;-74
2022/07/25 11:37:52;;;;;;;4.50;4.20;;;49.70;34.90;;;;;;6159908;23;20180;-70
2022/07/25 11:40:19;;;;;;;5.65;5.32;;;50.40;33.80;;;;;;6153588;23;20691;-70
2022/07/25 11:42:52;;;;;;;5.28;4.82;;;50.00;34.10;;;;;;6159820;23;20165;-72
2022/07/25 11:45:29;;;;;;;4.68;4.38;;;49.60;34.60;;;;;;6160298;23;20169;-72
2022/07/25 11:48:04;;;;;;;5.35;4.95;;;49.00;35.60;;;;;;6154305;23;20137;-71
2022/07/25 11:50:31;;;;;;;4.80;4.50;;;49.60;35.20;;;;;;6132142;23;20214;-73
2022/07/25 11:52:59;;;;;;;5.10;4.80;;;48.90;35.60;;;;;;6137115;23;20732;-72
2022/07/25 11:55:28;;;;;;;5.13;4.57;;;49.00;34.80;;;;;;6164889;23;20149;-73
2022/07/25 11:57:58;;;;;;;5.00;4.60;;;48.70;35.50;;;;;;6162033;23;20713;-72
2022/07/25 12:00:24;;;;;;;4.97;4.57;;;48.90;35.30;;;;;;6131904;23;20157;-71
2022/07/25 12:02:50;;;;;;;4.82;4.53;;;48.90;35.60;;;;;;6153444;23;20234;-71
2022/07/25 12:05:18;;;;;;;4.78;4.47;;;49.00;34.40;;;;;;6151067;23;20606;-70
2022/07/25 12:07:53;;;;;;;4.30;4.10;;;49.00;34.00;;;;;;6159407;23;20206;-71
2022/07/25 12:10:23;;;;;;;5.13;4.82;;;48.90;33.70;;;;;;6158629;23;20183;-71
2022/07/25 12:12:56;;;;;;;5.00;4.70;;;48.10;33.70;;;;;;6157794;23;20247;-68
2022/07/25 12:15:24;;;;;;;4.70;4.40;;;47.20;34.60;;;;;;6152920;23;20153;-68
2022/07/25 12:17:51;;;;;;;5.10;4.80;;;46.70;34.80;;;;;;6153956;23;20172;-68
2022/07/25 12:20:36;;;;;;;5.57;5.20;;;46.50;35.30;;;;;;6162452;23;20144;-70
2022/07/25 12:23:05;;;;;;;5.10;4.78;;;46.20;36.30;;;;;;6152976;23;20165;-71
2022/07/25 12:25:43;;;;;;;4.38;4.18;;;46.10;36.60;;;;;;6153922;23;20149;-70
2022/07/25 12:28:10;;;;;;;3.55;3.33;;;47.00;34.50;;;;;;6154260;23;20136;-72
2022/07/25 12:30:37;;;;;;;3.47;3.28;;;46.90;33.00;;;;;;6153628;23;20153;-73
2022/07/25 12:33:04;;;;;;;4.90;4.45;;;46.90;32.90;;;;;;6153223;23;20248;-69
2022/07/25 12:35:29;;;;;;;4.85;4.25;;;46.50;34.40;;;;;;6152691;23;20152;-68
2022/07/25 12:37:55;;;;;;;4.88;4.57;;;46.40;34.40;;;;;;6153709;23;20177;-70
2022/07/25 12:40:21;;;;;;;4.22;3.92;;;46.10;35.10;;;;;;6152533;23;20140;-71
2022/07/25 12:42:48;;;;;;;4.25;3.92;;;46.30;34.60;;;;;;6153772;23;20173;-71
2022/07/25 12:45:15;;;;;;;4.55;4.28;;;46.80;33.50;;;;;;6153906;23;20525;-71
2022/07/25 12:47:43;;;;;;;3.83;3.63;;;47.20;33.40;;;;;;6153177;23;20153;-71